sensor_id;sensor_type;location;lat;lon;timestamp;P1;durP1;ratioP1;P2;durP2;ratioP2
54853;SDS011;40747;49.480;8.658;2023-06-19T00:02:24;7.15;;;4.63;;
54853;SDS011;40747;49.480;8.658;2023-06-19T00:04:49;6.25;;;4.47;;
54853;SDS011;40747;49.480;8.658;2023-06-19T00:07:15;5.68;;;4.15;;
54853;SDS011;40747;49.480;8.658;2023-06-19T00:09:40;5.97;;;4.30;;
54853;SDS011;40747;49.480;8.658;2023-06-19T00:12:05;5.65;;;4.47;;
54853;SDS011;40747;49.480;8.658;2023-06-19T00:14:31;5.28;;;4.28;;
54853;SDS011;40747;49.480;8.658;2023-06-19T00:16:57;6.35;;;4.25;;
54853;SDS011;40747;49.480;8.658;2023-06-19T00:19:23;7.55;;;5.07;;
54853;SDS011;40747;49.480;8.658;2023-06-19T00:21:51;6.03;;;4.35;;
54853;SDS011;40747;49.480;8.658;2023-06-19T00:24:18;4.78;;;4.15;;
54853;SDS011;40747;49.480;8.658;2023-06-19T00:26:43;6.75;;;4.45;;
54853;SDS011;40747;49.480;8.658;2023-06-19T00:29:08;6.20;;;4.38;;
54853;SDS011;40747;49.480;8.658;2023-06-19T00:31:33;6.85;;;4.45;;
54853;SDS011;40747;49.480;8.658;2023-06-19T00:34:02;6.40;;;4.60;;
54853;SDS011;40747;49.480;8.658;2023-06-19T00:36:27;7.55;;;5.00;;
54853;SDS011;40747;49.480;8.658;2023-06-19T00:38:55;7.00;;;4.85;;
54853;SDS011;40747;49.480;8.658;2023-06-19T00:41:21;4.80;;;4.07;;
54853;SDS011;40747;49.480;8.658;2023-06-19T00:43:47;5.03;;;3.92;;
54853;SDS011;40747;49.480;8.658;2023-06-19T00:46:12;5.55;;;4.68;;
54853;SDS011;40747;49.480;8.658;2023-06-19T00:48:38;5.93;;;4.13;;
54853;SDS011;40747;49.480;8.658;2023-06-19T00:51:04;4.47;;;3.70;;
54853;SDS011;40747;49.480;8.658;2023-06-19T00:53:29;5.53;;;4.07;;
54853;SDS011;40747;49.480;8.658;2023-06-19T00:55:57;6.80;;;4.55;;
54853;SDS011;40747;49.480;8.658;2023-06-19T00:58:24;5.55;;;4.47;;
54853;SDS011;40747;49.480;8.658;2023-06-19T01:00:49;6.97;;;4.25;;
54853;SDS011;40747;49.480;8.658;2023-06-19T01:03:15;5.63;;;4.32;;
54853;SDS011;40747;49.480;8.658;2023-06-19T01:05:41;5.80;;;4.18;;
54853;SDS011;40747;49.480;8.658;2023-06-19T01:10:55;7.60;;;4.97;;
54853;SDS011;40747;49.480;8.658;2023-06-19T01:13:30;6.18;;;4.20;;
54853;SDS011;40747;49.480;8.658;2023-06-19T01:16:02;6.70;;;4.88;;
54853;SDS011;40747;49.480;8.658;2023-06-19T01:18:29;5.75;;;4.10;;
54853;SDS011;40747;49.480;8.658;2023-06-19T01:20:55;6.47;;;4.40;;
54853;SDS011;40747;49.480;8.658;2023-06-19T01:23:21;7.85;;;5.05;;
54853;SDS011;40747;49.480;8.658;2023-06-19T01:25:46;7.47;;;5.00;;
54853;SDS011;40747;49.480;8.658;2023-06-19T01:28:12;12.75;;;6.03;;
54853;SDS011;40747;49.480;8.658;2023-06-19T01:30:41;7.90;;;5.28;;
54853;SDS011;40747;49.480;8.658;2023-06-19T01:33:12;10.50;;;6.07;;
54853;SDS011;40747;49.480;8.658;2023-06-19T01:35:43;8.70;;;5.38;;
54853;SDS011;40747;49.480;8.658;2023-06-19T01:38:11;9.07;;;5.90;;
54853;SDS011;40747;49.480;8.658;2023-06-19T01:40:38;7.18;;;4.97;;
54853;SDS011;40747;49.480;8.658;2023-06-19T01:43:05;9.23;;;5.97;;
54853;SDS011;40747;49.480;8.658;2023-06-19T01:45:33;9.48;;;5.97;;
54853;SDS011;40747;49.480;8.658;2023-06-19T01:47:58;7.05;;;5.68;;
54853;SDS011;40747;49.480;8.658;2023-06-19T01:50:23;8.35;;;5.82;;
54853;SDS011;40747;49.480;8.658;2023-06-19T01:52:49;6.28;;;5.35;;
54853;SDS011;40747;49.480;8.658;2023-06-19T01:55:15;10.30;;;6.07;;
54853;SDS011;40747;49.480;8.658;2023-06-19T01:57:41;8.05;;;5.45;;
54853;SDS011;40747;49.480;8.658;2023-06-19T02:00:06;9.27;;;6.35;;
54853;SDS011;40747;49.480;8.658;2023-06-19T02:02:35;9.27;;;6.22;;
54853;SDS011;40747;49.480;8.658;2023-06-19T02:05:01;7.10;;;5.72;;
54853;SDS011;40747;49.480;8.658;2023-06-19T02:07:27;10.63;;;5.65;;
54853;SDS011;40747;49.480;8.658;2023-06-19T02:09:52;7.10;;;5.20;;
54853;SDS011;40747;49.480;8.658;2023-06-19T02:12:18;7.70;;;5.80;;
54853;SDS011;40747;49.480;8.658;2023-06-19T02:14:43;7.75;;;5.10;;
54853;SDS011;40747;49.480;8.658;2023-06-19T02:17:08;7.35;;;5.45;;
54853;SDS011;40747;49.480;8.658;2023-06-19T02:19:34;8.82;;;5.22;;
54853;SDS011;40747;49.480;8.658;2023-06-19T02:21:59;6.63;;;5.05;;
54853;SDS011;40747;49.480;8.658;2023-06-19T02:24:24;8.30;;;5.43;;
54853;SDS011;40747;49.480;8.658;2023-06-19T02:26:50;5.97;;;5.30;;
54853;SDS011;40747;49.480;8.658;2023-06-19T02:29:15;5.75;;;4.85;;
54853;SDS011;40747;49.480;8.658;2023-06-19T02:31:41;7.28;;;4.35;;
54853;SDS011;40747;49.480;8.658;2023-06-19T02:34:07;6.43;;;4.60;;
54853;SDS011;40747;49.480;8.658;2023-06-19T02:36:34;6.57;;;5.43;;
54853;SDS011;40747;49.480;8.658;2023-06-19T02:39:00;9.90;;;5.05;;
54853;SDS011;40747;49.480;8.658;2023-06-19T02:41:26;7.07;;;5.03;;
54853;SDS011;40747;49.480;8.658;2023-06-19T02:43:51;6.03;;;4.55;;
54853;SDS011;40747;49.480;8.658;2023-06-19T02:46:17;7.82;;;4.47;;
54853;SDS011;40747;49.480;8.658;2023-06-19T02:48:43;7.13;;;4.60;;
54853;SDS011;40747;49.480;8.658;2023-06-19T02:51:08;5.07;;;4.50;;
54853;SDS011;40747;49.480;8.658;2023-06-19T02:53:33;7.25;;;4.63;;
54853;SDS011;40747;49.480;8.658;2023-06-19T02:55:59;6.10;;;4.50;;
54853;SDS011;40747;49.480;8.658;2023-06-19T02:58:24;6.68;;;3.92;;
54853;SDS011;40747;49.480;8.658;2023-06-19T03:00:51;5.68;;;4.60;;
54853;SDS011;40747;49.480;8.658;2023-06-19T03:03:17;7.45;;;4.50;;
54853;SDS011;40747;49.480;8.658;2023-06-19T03:05:43;5.80;;;4.00;;
54853;SDS011;40747;49.480;8.658;2023-06-19T03:08:08;7.35;;;4.18;;
54853;SDS011;40747;49.480;8.658;2023-06-19T03:10:33;6.18;;;4.10;;
54853;SDS011;40747;49.480;8.658;2023-06-19T03:12:59;4.57;;;3.72;;
54853;SDS011;40747;49.480;8.658;2023-06-19T03:15:24;5.95;;;4.03;;
54853;SDS011;40747;49.480;8.658;2023-06-19T03:17:50;6.88;;;4.57;;
54853;SDS011;40747;49.480;8.658;2023-06-19T03:20:15;5.68;;;4.13;;
54853;SDS011;40747;49.480;8.658;2023-06-19T03:22:41;7.18;;;3.83;;
54853;SDS011;40747;49.480;8.658;2023-06-19T03:25:07;4.72;;;3.50;;
54853;SDS011;40747;49.480;8.658;2023-06-19T03:27:33;6.05;;;3.65;;
54853;SDS011;40747;49.480;8.658;2023-06-19T03:29:58;5.00;;;3.45;;
54853;SDS011;40747;49.480;8.658;2023-06-19T03:32:23;4.05;;;3.05;;
54853;SDS011;40747;49.480;8.658;2023-06-19T03:34:49;3.53;;;2.55;;
54853;SDS011;40747;49.480;8.658;2023-06-19T03:37:14;3.10;;;2.80;;
54853;SDS011;40747;49.480;8.658;2023-06-19T03:39:40;5.22;;;3.17;;
54853;SDS011;40747;49.480;8.658;2023-06-19T03:42:05;3.60;;;2.72;;
54853;SDS011;40747;49.480;8.658;2023-06-19T03:44:31;3.22;;;2.65;;
54853;SDS011;40747;49.480;8.658;2023-06-19T03:46:56;4.10;;;2.05;;
54853;SDS011;40747;49.480;8.658;2023-06-19T03:49:21;3.10;;;2.20;;
54853;SDS011;40747;49.480;8.658;2023-06-19T03:51:47;2.45;;;2.00;;
54853;SDS011;40747;49.480;8.658;2023-06-19T03:54:12;3.65;;;1.80;;
54853;SDS011;40747;49.480;8.658;2023-06-19T03:56:37;2.15;;;1.73;;
54853;SDS011;40747;49.480;8.658;2023-06-19T03:59:03;1.98;;;1.70;;
54853;SDS011;40747;49.480;8.658;2023-06-19T04:01:28;1.77;;;1.60;;
54853;SDS011;40747;49.480;8.658;2023-06-19T04:03:53;5.70;;;1.65;;
54853;SDS011;40747;49.480;8.658;2023-06-19T04:06:18;3.03;;;1.65;;
54853;SDS011;40747;49.480;8.658;2023-06-19T04:08:44;2.20;;;1.45;;
54853;SDS011;40747;49.480;8.658;2023-06-19T04:11:09;4.95;;;1.95;;
54853;SDS011;40747;49.480;8.658;2023-06-19T04:13:34;3.17;;;1.65;;
54853;SDS011;40747;49.480;8.658;2023-06-19T04:16:00;4.70;;;2.42;;
54853;SDS011;40747;49.480;8.658;2023-06-19T04:18:25;1.90;;;1.40;;
54853;SDS011;40747;49.480;8.658;2023-06-19T04:20:52;3.05;;;1.65;;
54853;SDS011;40747;49.480;8.658;2023-06-19T04:23:17;3.72;;;1.50;;
54853;SDS011;40747;49.480;8.658;2023-06-19T04:25:43;3.10;;;2.05;;
54853;SDS011;40747;49.480;8.658;2023-06-19T04:28:08;2.92;;;1.58;;
54853;SDS011;40747;49.480;8.658;2023-06-19T04:30:33;5.00;;;1.83;;
54853;SDS011;40747;49.480;8.658;2023-06-19T04:32:59;2.35;;;1.52;;
54853;SDS011;40747;49.480;8.658;2023-06-19T04:37:52;3.30;;;2.15;;
54853;SDS011;40747;49.480;8.658;2023-06-19T04:40:18;2.83;;;1.80;;
54853;SDS011;40747;49.480;8.658;2023-06-19T04:42:44;3.08;;;2.00;;
54853;SDS011;40747;49.480;8.658;2023-06-19T04:45:09;2.95;;;1.80;;
54853;SDS011;40747;49.480;8.658;2023-06-19T04:47:35;4.13;;;2.38;;
54853;SDS011;40747;49.480;8.658;2023-06-19T04:50:00;2.83;;;2.03;;
54853;SDS011;40747;49.480;8.658;2023-06-19T04:52:26;2.42;;;1.70;;
54853;SDS011;40747;49.480;8.658;2023-06-19T04:54:51;2.00;;;1.48;;
54853;SDS011;40747;49.480;8.658;2023-06-19T04:57:16;2.80;;;1.80;;
54853;SDS011;40747;49.480;8.658;2023-06-19T04:59:42;5.60;;;1.98;;
54853;SDS011;40747;49.480;8.658;2023-06-19T05:02:09;3.65;;;1.83;;
54853;SDS011;40747;49.480;8.658;2023-06-19T05:04:35;2.92;;;2.00;;
54853;SDS011;40747;49.480;8.658;2023-06-19T05:07:01;3.58;;;1.95;;
54853;SDS011;40747;49.480;8.658;2023-06-19T05:09:26;2.22;;;1.80;;
54853;SDS011;40747;49.480;8.658;2023-06-19T05:11:52;3.92;;;1.92;;
54853;SDS011;40747;49.480;8.658;2023-06-19T05:14:17;2.72;;;1.63;;
54853;SDS011;40747;49.480;8.658;2023-06-19T05:16:42;3.33;;;2.10;;
54853;SDS011;40747;49.480;8.658;2023-06-19T05:19:08;3.20;;;2.13;;
54853;SDS011;40747;49.480;8.658;2023-06-19T05:21:34;3.25;;;2.33;;
54853;SDS011;40747;49.480;8.658;2023-06-19T05:23:59;5.97;;;2.03;;
54853;SDS011;40747;49.480;8.658;2023-06-19T05:26:24;7.35;;;1.80;;
54853;SDS011;40747;49.480;8.658;2023-06-19T05:28:51;2.25;;;1.80;;
54853;SDS011;40747;49.480;8.658;2023-06-19T05:31:16;2.25;;;1.58;;
54853;SDS011;40747;49.480;8.658;2023-06-19T05:33:42;1.88;;;1.55;;
54853;SDS011;40747;49.480;8.658;2023-06-19T05:36:07;4.03;;;1.95;;
54853;SDS011;40747;49.480;8.658;2023-06-19T05:38:32;3.17;;;2.25;;
54853;SDS011;40747;49.480;8.658;2023-06-19T05:40:58;5.18;;;2.17;;
54853;SDS011;40747;49.480;8.658;2023-06-19T05:43:23;3.10;;;1.52;;
54853;SDS011;40747;49.480;8.658;2023-06-19T05:45:49;3.03;;;1.92;;
54853;SDS011;40747;49.480;8.658;2023-06-19T05:48:15;2.78;;;1.88;;
54853;SDS011;40747;49.480;8.658;2023-06-19T05:50:40;5.38;;;2.05;;
54853;SDS011;40747;49.480;8.658;2023-06-19T05:53:06;1.73;;;1.55;;
54853;SDS011;40747;49.480;8.658;2023-06-19T05:55:31;3.53;;;1.77;;
54853;SDS011;40747;49.480;8.658;2023-06-19T05:57:57;2.35;;;1.58;;
54853;SDS011;40747;49.480;8.658;2023-06-19T06:00:22;3.38;;;1.90;;
54853;SDS011;40747;49.480;8.658;2023-06-19T06:02:48;2.90;;;2.03;;
54853;SDS011;40747;49.480;8.658;2023-06-19T06:05:13;3.00;;;1.83;;
54853;SDS011;40747;49.480;8.658;2023-06-19T06:07:39;3.53;;;2.00;;
54853;SDS011;40747;49.480;8.658;2023-06-19T06:10:04;5.32;;;2.40;;
54853;SDS011;40747;49.480;8.658;2023-06-19T06:12:33;2.45;;;2.03;;
54853;SDS011;40747;49.480;8.658;2023-06-19T06:15:00;2.85;;;1.90;;
54853;SDS011;40747;49.480;8.658;2023-06-19T06:17:26;2.92;;;2.13;;
54853;SDS011;40747;49.480;8.658;2023-06-19T06:19:51;4.38;;;1.98;;
54853;SDS011;40747;49.480;8.658;2023-06-19T06:22:16;4.47;;;2.33;;
54853;SDS011;40747;49.480;8.658;2023-06-19T06:24:43;6.93;;;2.30;;
54853;SDS011;40747;49.480;8.658;2023-06-19T06:27:08;3.78;;;2.28;;
54853;SDS011;40747;49.480;8.658;2023-06-19T06:29:34;2.13;;;1.50;;
54853;SDS011;40747;49.480;8.658;2023-06-19T06:32:03;5.28;;;2.00;;
54853;SDS011;40747;49.480;8.658;2023-06-19T06:34:30;5.63;;;1.95;;
54853;SDS011;40747;49.480;8.658;2023-06-19T06:36:57;2.65;;;2.08;;
54853;SDS011;40747;49.480;8.658;2023-06-19T06:39:22;3.17;;;2.03;;
54853;SDS011;40747;49.480;8.658;2023-06-19T06:41:47;2.92;;;2.10;;
54853;SDS011;40747;49.480;8.658;2023-06-19T06:44:13;3.05;;;2.28;;
54853;SDS011;40747;49.480;8.658;2023-06-19T06:46:38;3.60;;;2.05;;
54853;SDS011;40747;49.480;8.658;2023-06-19T06:49:03;5.93;;;2.47;;
54853;SDS011;40747;49.480;8.658;2023-06-19T06:51:29;2.60;;;1.90;;
54853;SDS011;40747;49.480;8.658;2023-06-19T06:53:54;5.10;;;2.38;;
54853;SDS011;40747;49.480;8.658;2023-06-19T06:56:19;4.90;;;2.53;;
54853;SDS011;40747;49.480;8.658;2023-06-19T06:58:44;5.07;;;2.45;;
54853;SDS011;40747;49.480;8.658;2023-06-19T07:01:11;3.28;;;2.30;;
54853;SDS011;40747;49.480;8.658;2023-06-19T07:03:37;3.47;;;2.45;;
54853;SDS011;40747;49.480;8.658;2023-06-19T07:06:02;3.78;;;2.45;;
54853;SDS011;40747;49.480;8.658;2023-06-19T07:08:28;5.00;;;2.40;;
54853;SDS011;40747;49.480;8.658;2023-06-19T07:10:53;4.95;;;2.90;;
54853;SDS011;40747;49.480;8.658;2023-06-19T07:13:18;3.40;;;2.50;;
54853;SDS011;40747;49.480;8.658;2023-06-19T07:15:43;3.50;;;2.60;;
54853;SDS011;40747;49.480;8.658;2023-06-19T07:18:09;5.70;;;2.67;;
54853;SDS011;40747;49.480;8.658;2023-06-19T07:20:34;2.83;;;2.25;;
54853;SDS011;40747;49.480;8.658;2023-06-19T07:22:59;4.55;;;2.88;;
54853;SDS011;40747;49.480;8.658;2023-06-19T07:25:25;6.00;;;3.38;;
54853;SDS011;40747;49.480;8.658;2023-06-19T07:27:50;6.53;;;3.15;;
54853;SDS011;40747;49.480;8.658;2023-06-19T07:30:16;3.70;;;2.78;;
54853;SDS011;40747;49.480;8.658;2023-06-19T07:32:42;3.58;;;2.28;;
54853;SDS011;40747;49.480;8.658;2023-06-19T07:35:07;5.78;;;3.03;;
54853;SDS011;40747;49.480;8.658;2023-06-19T07:37:33;6.75;;;2.78;;
54853;SDS011;40747;49.480;8.658;2023-06-19T07:39:58;4.22;;;2.90;;
54853;SDS011;40747;49.480;8.658;2023-06-19T07:42:23;4.18;;;2.90;;
54853;SDS011;40747;49.480;8.658;2023-06-19T07:44:49;4.07;;;2.90;;
54853;SDS011;40747;49.480;8.658;2023-06-19T07:47:15;4.18;;;3.08;;
54853;SDS011;40747;49.480;8.658;2023-06-19T07:49:41;4.30;;;3.35;;
54853;SDS011;40747;49.480;8.658;2023-06-19T07:52:07;4.53;;;3.03;;
54853;SDS011;40747;49.480;8.658;2023-06-19T07:54:34;4.85;;;2.67;;
54853;SDS011;40747;49.480;8.658;2023-06-19T07:57:00;4.47;;;2.88;;
54853;SDS011;40747;49.480;8.658;2023-06-19T07:59:25;5.65;;;3.20;;
54853;SDS011;40747;49.480;8.658;2023-06-19T08:01:51;9.38;;;3.55;;
54853;SDS011;40747;49.480;8.658;2023-06-19T08:04:16;4.13;;;3.22;;
54853;SDS011;40747;49.480;8.658;2023-06-19T08:06:41;4.20;;;3.00;;
54853;SDS011;40747;49.480;8.658;2023-06-19T08:09:07;5.57;;;4.00;;
54853;SDS011;40747;49.480;8.658;2023-06-19T08:11:32;5.28;;;3.42;;
54853;SDS011;40747;49.480;8.658;2023-06-19T08:13:57;3.33;;;2.88;;
54853;SDS011;40747;49.480;8.658;2023-06-19T08:16:24;3.85;;;3.33;;
54853;SDS011;40747;49.480;8.658;2023-06-19T08:18:50;8.52;;;3.83;;
54853;SDS011;40747;49.480;8.658;2023-06-19T08:21:16;5.07;;;3.35;;
54853;SDS011;40747;49.480;8.658;2023-06-19T08:23:41;3.67;;;2.88;;
54853;SDS011;40747;49.480;8.658;2023-06-19T08:26:08;4.60;;;3.58;;
54853;SDS011;40747;49.480;8.658;2023-06-19T08:28:34;4.60;;;3.33;;
54853;SDS011;40747;49.480;8.658;2023-06-19T08:30:59;6.97;;;4.32;;
54853;SDS011;40747;49.480;8.658;2023-06-19T08:33:25;3.85;;;3.28;;
54853;SDS011;40747;49.480;8.658;2023-06-19T08:35:50;6.50;;;3.70;;
54853;SDS011;40747;49.480;8.658;2023-06-19T08:38:15;6.45;;;3.97;;
54853;SDS011;40747;49.480;8.658;2023-06-19T08:40:41;4.30;;;3.45;;
54853;SDS011;40747;49.480;8.658;2023-06-19T08:43:07;5.45;;;3.53;;
54853;SDS011;40747;49.480;8.658;2023-06-19T08:45:32;3.33;;;3.03;;
54853;SDS011;40747;49.480;8.658;2023-06-19T08:47:58;4.95;;;3.40;;
54853;SDS011;40747;49.480;8.658;2023-06-19T08:50:25;4.35;;;3.25;;
54853;SDS011;40747;49.480;8.658;2023-06-19T08:52:50;5.22;;;3.85;;
54853;SDS011;40747;49.480;8.658;2023-06-19T08:55:16;5.95;;;3.38;;
54853;SDS011;40747;49.480;8.658;2023-06-19T08:57:41;4.28;;;3.22;;
54853;SDS011;40747;49.480;8.658;2023-06-19T09:00:06;6.20;;;3.75;;
54853;SDS011;40747;49.480;8.658;2023-06-19T09:02:41;3.67;;;3.30;;
54853;SDS011;40747;49.480;8.658;2023-06-19T09:05:09;6.63;;;3.92;;
54853;SDS011;40747;49.480;8.658;2023-06-19T09:07:38;5.18;;;3.80;;
54853;SDS011;40747;49.480;8.658;2023-06-19T09:10:14;4.38;;;3.53;;
54853;SDS011;40747;49.480;8.658;2023-06-19T09:12:44;6.35;;;3.75;;
54853;SDS011;40747;49.480;8.658;2023-06-19T09:15:21;5.72;;;3.72;;
54853;SDS011;40747;49.480;8.658;2023-06-19T09:17:48;5.78;;;3.80;;
54853;SDS011;40747;49.480;8.658;2023-06-19T09:20:27;6.13;;;4.18;;
54853;SDS011;40747;49.480;8.658;2023-06-19T09:22:56;6.40;;;3.65;;
54853;SDS011;40747;49.480;8.658;2023-06-19T09:25:22;5.20;;;3.88;;
54853;SDS011;40747;49.480;8.658;2023-06-19T09:27:52;5.13;;;3.25;;
54853;SDS011;40747;49.480;8.658;2023-06-19T09:30:19;5.22;;;3.45;;
54853;SDS011;40747;49.480;8.658;2023-06-19T09:32:44;4.78;;;3.78;;
54853;SDS011;40747;49.480;8.658;2023-06-19T09:35:10;4.25;;;3.80;;
54853;SDS011;40747;49.480;8.658;2023-06-19T09:37:35;5.15;;;3.33;;
54853;SDS011;40747;49.480;8.658;2023-06-19T09:40:04;6.60;;;3.67;;
54853;SDS011;40747;49.480;8.658;2023-06-19T09:42:42;6.67;;;4.23;;
54853;SDS011;40747;49.480;8.658;2023-06-19T09:47:39;5.97;;;3.78;;
54853;SDS011;40747;49.480;8.658;2023-06-19T09:50:08;5.60;;;4.50;;
54853;SDS011;40747;49.480;8.658;2023-06-19T09:52:37;5.40;;;3.72;;
54853;SDS011;40747;49.480;8.658;2023-06-19T09:55:04;4.57;;;4.07;;
54853;SDS011;40747;49.480;8.658;2023-06-19T09:57:31;5.05;;;3.88;;
54853;SDS011;40747;49.480;8.658;2023-06-19T09:59:58;9.77;;;3.80;;
54853;SDS011;40747;49.480;8.658;2023-06-19T10:02:34;4.90;;;4.13;;
54853;SDS011;40747;49.480;8.658;2023-06-19T10:05:00;4.40;;;3.55;;
54853;SDS011;40747;49.480;8.658;2023-06-19T10:07:26;7.72;;;3.95;;
54853;SDS011;40747;49.480;8.658;2023-06-19T10:09:58;5.15;;;4.15;;
54853;SDS011;40747;49.480;8.658;2023-06-19T10:12:44;6.93;;;3.92;;
54853;SDS011;40747;49.480;8.658;2023-06-19T10:15:21;5.93;;;4.07;;
54853;SDS011;40747;49.480;8.658;2023-06-19T10:17:58;5.00;;;4.35;;
54853;SDS011;40747;49.480;8.658;2023-06-19T10:23:08;6.50;;;4.35;;
54853;SDS011;40747;49.480;8.658;2023-06-19T10:25:40;4.82;;;3.78;;
54853;SDS011;40747;49.480;8.658;2023-06-19T10:30:56;3.83;;;3.43;;
54853;SDS011;40747;49.480;8.658;2023-06-19T10:33:24;4.75;;;4.00;;
54853;SDS011;40747;49.480;8.658;2023-06-19T10:35:51;5.15;;;3.80;;
54853;SDS011;40747;49.480;8.658;2023-06-19T10:38:17;9.38;;;4.93;;
54853;SDS011;40747;49.480;8.658;2023-06-19T10:40:43;4.65;;;3.67;;
54853;SDS011;40747;49.480;8.658;2023-06-19T10:43:10;6.50;;;4.15;;
54853;SDS011;40747;49.480;8.658;2023-06-19T10:45:35;5.88;;;4.15;;
54853;SDS011;40747;49.480;8.658;2023-06-19T10:48:01;5.93;;;3.85;;
54853;SDS011;40747;49.480;8.658;2023-06-19T10:50:28;4.65;;;3.90;;
54853;SDS011;40747;49.480;8.658;2023-06-19T10:52:53;3.75;;;3.30;;
54853;SDS011;40747;49.480;8.658;2023-06-19T10:55:20;9.20;;;3.83;;
54853;SDS011;40747;49.480;8.658;2023-06-19T10:57:46;5.07;;;3.25;;
54853;SDS011;40747;49.480;8.658;2023-06-19T11:00:22;4.15;;;3.70;;
54853;SDS011;40747;49.480;8.658;2023-06-19T11:02:48;4.47;;;3.78;;
54853;SDS011;40747;49.480;8.658;2023-06-19T11:05:14;3.92;;;3.53;;
54853;SDS011;40747;49.480;8.658;2023-06-19T11:07:39;4.40;;;3.53;;
54853;SDS011;40747;49.480;8.658;2023-06-19T11:10:04;5.32;;;3.45;;
54853;SDS011;40747;49.480;8.658;2023-06-19T11:12:31;6.68;;;3.63;;
54853;SDS011;40747;49.480;8.658;2023-06-19T11:14:58;6.15;;;3.55;;
54853;SDS011;40747;49.480;8.658;2023-06-19T11:17:24;5.80;;;4.13;;
54853;SDS011;40747;49.480;8.658;2023-06-19T11:19:50;3.60;;;3.05;;
54853;SDS011;40747;49.480;8.658;2023-06-19T11:22:16;3.42;;;3.13;;
54853;SDS011;40747;49.480;8.658;2023-06-19T11:24:45;5.40;;;3.58;;
54853;SDS011;40747;49.480;8.658;2023-06-19T11:27:18;7.38;;;4.05;;
54853;SDS011;40747;49.480;8.658;2023-06-19T11:29:54;4.78;;;3.30;;
54853;SDS011;40747;49.480;8.658;2023-06-19T11:32:20;4.45;;;3.35;;
54853;SDS011;40747;49.480;8.658;2023-06-19T11:34:50;4.05;;;3.40;;
54853;SDS011;40747;49.480;8.658;2023-06-19T11:37:18;3.78;;;3.17;;
54853;SDS011;40747;49.480;8.658;2023-06-19T11:39:46;3.70;;;3.15;;
54853;SDS011;40747;49.480;8.658;2023-06-19T11:42:12;3.90;;;3.50;;
54853;SDS011;40747;49.480;8.658;2023-06-19T11:45:00;6.32;;;3.10;;
54853;SDS011;40747;49.480;8.658;2023-06-19T11:47:32;3.42;;;3.10;;
54853;SDS011;40747;49.480;8.658;2023-06-19T11:49:58;3.78;;;3.20;;
54853;SDS011;40747;49.480;8.658;2023-06-19T11:52:24;5.13;;;3.40;;
54853;SDS011;40747;49.480;8.658;2023-06-19T11:54:49;4.65;;;3.55;;
54853;SDS011;40747;49.480;8.658;2023-06-19T11:57:15;3.85;;;3.40;;
54853;SDS011;40747;49.480;8.658;2023-06-19T11:59:40;5.03;;;3.80;;
54853;SDS011;40747;49.480;8.658;2023-06-19T12:02:07;4.47;;;3.20;;
54853;SDS011;40747;49.480;8.658;2023-06-19T12:04:33;4.07;;;3.50;;
54853;SDS011;40747;49.480;8.658;2023-06-19T12:06:58;4.90;;;3.20;;
54853;SDS011;40747;49.480;8.658;2023-06-19T12:09:24;3.78;;;3.22;;
54853;SDS011;40747;49.480;8.658;2023-06-19T12:11:49;5.68;;;2.65;;
54853;SDS011;40747;49.480;8.658;2023-06-19T12:14:15;4.65;;;3.17;;
54853;SDS011;40747;49.480;8.658;2023-06-19T12:16:40;4.10;;;3.00;;
54853;SDS011;40747;49.480;8.658;2023-06-19T12:19:05;4.40;;;3.35;;
54853;SDS011;40747;49.480;8.658;2023-06-19T12:21:31;3.33;;;3.03;;
54853;SDS011;40747;49.480;8.658;2023-06-19T12:23:56;5.50;;;3.05;;
54853;SDS011;40747;49.480;8.658;2023-06-19T12:26:21;6.93;;;3.25;;
54853;SDS011;40747;49.480;8.658;2023-06-19T12:28:49;3.72;;;3.10;;
54853;SDS011;40747;49.480;8.658;2023-06-19T12:31:15;3.55;;;3.13;;
54853;SDS011;40747;49.480;8.658;2023-06-19T12:33:40;3.03;;;2.73;;
54853;SDS011;40747;49.480;8.658;2023-06-19T12:36:09;3.28;;;2.85;;
54853;SDS011;40747;49.480;8.658;2023-06-19T12:38:37;5.22;;;3.28;;
54853;SDS011;40747;49.480;8.658;2023-06-19T12:41:03;3.78;;;2.88;;
54853;SDS011;40747;49.480;8.658;2023-06-19T12:43:28;3.22;;;2.90;;
54853;SDS011;40747;49.480;8.658;2023-06-19T12:45:56;3.78;;;2.78;;
54853;SDS011;40747;49.480;8.658;2023-06-19T12:48:22;6.68;;;3.58;;
54853;SDS011;40747;49.480;8.658;2023-06-19T12:50:47;4.78;;;2.88;;
54853;SDS011;40747;49.480;8.658;2023-06-19T12:53:12;3.50;;;2.95;;
54853;SDS011;40747;49.480;8.658;2023-06-19T12:55:38;3.28;;;2.92;;
54853;SDS011;40747;49.480;8.658;2023-06-19T12:58:03;4.75;;;3.08;;
54853;SDS011;40747;49.480;8.658;2023-06-19T13:00:28;4.63;;;3.03;;
54853;SDS011;40747;49.480;8.658;2023-06-19T13:02:53;4.72;;;3.28;;
54853;SDS011;40747;49.480;8.658;2023-06-19T13:05:19;4.00;;;3.30;;
54853;SDS011;40747;49.480;8.658;2023-06-19T13:07:44;5.05;;;3.10;;
54853;SDS011;40747;49.480;8.658;2023-06-19T13:10:09;4.05;;;2.65;;
54853;SDS011;40747;49.480;8.658;2023-06-19T13:12:35;4.53;;;2.92;;
54853;SDS011;40747;49.480;8.658;2023-06-19T13:15:00;3.78;;;3.22;;
54853;SDS011;40747;49.480;8.658;2023-06-19T13:17:25;7.85;;;2.92;;
54853;SDS011;40747;49.480;8.658;2023-06-19T13:19:51;3.47;;;2.65;;
54853;SDS011;40747;49.480;8.658;2023-06-19T13:22:16;4.57;;;3.38;;
54853;SDS011;40747;49.480;8.658;2023-06-19T13:24:42;4.72;;;2.83;;
54853;SDS011;40747;49.480;8.658;2023-06-19T13:27:08;3.38;;;3.03;;
54853;SDS011;40747;49.480;8.658;2023-06-19T13:29:33;4.18;;;3.15;;
54853;SDS011;40747;49.480;8.658;2023-06-19T13:31:59;4.30;;;2.92;;
54853;SDS011;40747;49.480;8.658;2023-06-19T13:34:24;6.38;;;3.58;;
54853;SDS011;40747;49.480;8.658;2023-06-19T13:36:49;3.85;;;2.75;;
54853;SDS011;40747;49.480;8.658;2023-06-19T13:39:15;5.10;;;3.08;;
54853;SDS011;40747;49.480;8.658;2023-06-19T13:41:40;3.30;;;2.83;;
54853;SDS011;40747;49.480;8.658;2023-06-19T13:44:05;3.80;;;3.15;;
54853;SDS011;40747;49.480;8.658;2023-06-19T13:46:31;4.28;;;3.30;;
54853;SDS011;40747;49.480;8.658;2023-06-19T13:48:56;7.97;;;3.20;;
54853;SDS011;40747;49.480;8.658;2023-06-19T13:51:22;4.88;;;2.97;;
54853;SDS011;40747;49.480;8.658;2023-06-19T13:53:48;4.63;;;3.42;;
54853;SDS011;40747;49.480;8.658;2023-06-19T13:56:14;6.88;;;3.33;;
54853;SDS011;40747;49.480;8.658;2023-06-19T13:58:39;4.63;;;2.95;;
54853;SDS011;40747;49.480;8.658;2023-06-19T14:01:05;3.78;;;2.67;;
54853;SDS011;40747;49.480;8.658;2023-06-19T14:03:30;3.85;;;2.97;;
54853;SDS011;40747;49.480;8.658;2023-06-19T14:05:56;5.18;;;2.67;;
54853;SDS011;40747;49.480;8.658;2023-06-19T14:08:21;3.30;;;2.93;;
54853;SDS011;40747;49.480;8.658;2023-06-19T14:10:46;3.50;;;3.10;;
54853;SDS011;40747;49.480;8.658;2023-06-19T14:13:12;5.97;;;2.72;;
54853;SDS011;40747;49.480;8.658;2023-06-19T14:15:37;4.72;;;2.90;;
54853;SDS011;40747;49.480;8.658;2023-06-19T14:18:02;6.63;;;3.05;;
54853;SDS011;40747;49.480;8.658;2023-06-19T14:20:28;3.83;;;2.95;;
54853;SDS011;40747;49.480;8.658;2023-06-19T14:22:53;3.08;;;2.78;;
54853;SDS011;40747;49.480;8.658;2023-06-19T14:25:18;6.10;;;3.45;;
54853;SDS011;40747;49.480;8.658;2023-06-19T14:27:44;4.38;;;3.15;;
54853;SDS011;40747;49.480;8.658;2023-06-19T14:30:09;3.15;;;2.47;;
54853;SDS011;40747;49.480;8.658;2023-06-19T14:32:35;8.75;;;3.15;;
54853;SDS011;40747;49.480;8.658;2023-06-19T14:35:02;4.88;;;3.15;;
54853;SDS011;40747;49.480;8.658;2023-06-19T14:37:28;4.28;;;3.08;;
54853;SDS011;40747;49.480;8.658;2023-06-19T14:39:53;3.20;;;2.90;;
54853;SDS011;40747;49.480;8.658;2023-06-19T14:42:19;5.70;;;3.13;;
54853;SDS011;40747;49.480;8.658;2023-06-19T14:44:45;3.47;;;3.17;;
54853;SDS011;40747;49.480;8.658;2023-06-19T14:47:10;4.05;;;3.15;;
54853;SDS011;40747;49.480;8.658;2023-06-19T14:49:35;4.07;;;2.75;;
54853;SDS011;40747;49.480;8.658;2023-06-19T14:52:01;3.85;;;3.08;;
54853;SDS011;40747;49.480;8.658;2023-06-19T14:54:26;3.90;;;2.85;;
54853;SDS011;40747;49.480;8.658;2023-06-19T14:56:51;3.28;;;2.97;;